Time;durP1;ratioP1;P1;durP2;ratioP2;P2;SDS_P1;SDS_P2;PMS_P1;PMS_P2;Temp;Humidity;BMP_temperature;BMP_pressure;BME280_temperature;BME280_humidity;BME280_pressure;Samples;Min_cycle;Max_cycle;Signal;HPM_P1;HPM_P2
2023/01/31 00:01:40;;;;;;;3.07;1.70;;;26.10;99.90;;;;;;5011938;28;20631;-77
2023/01/31 00:04:11;;;;;;;6.93;1.80;;;26.00;99.90;;;;;;5011851;28;20236;-77
2023/01/31 00:06:41;;;;;;;5.67;1.73;;;25.80;99.90;;;;;;5008906;28;20640;-69
2023/01/31 00:09:10;;;;;;;2.67;1.43;;;25.80;99.90;;;;;;5011609;28;20232;-71
2023/01/31 00:11:38;;;;;;;5.23;1.47;;;25.80;99.90;;;;;;5011383;28;20192;-70
2023/01/31 00:14:07;;;;;;;5.57;1.77;;;25.90;99.90;;;;;;5013370;28;20649;-71
2023/01/31 00:16:35;;;;;;;3.23;1.57;;;26.00;99.90;;;;;;5016031;28;20214;-70
2023/01/31 00:19:03;;;;;;;5.00;1.63;;;26.00;99.90;;;;;;5016074;28;21003;-71
2023/01/31 00:21:31;;;;;;;6.03;1.93;;;25.90;99.90;;;;;;5015451;28;20269;-69
2023/01/31 00:23:59;;;;;;;6.10;1.40;;;25.80;99.90;;;;;;5016028;28;20702;-68
2023/01/31 00:26:32;;;;;;;9.97;1.60;;;25.60;99.90;;;;;;5015288;28;20313;-68
2023/01/31 00:29:02;;;;;;;3.40;1.70;;;25.50;99.90;;;;;;4996591;28;20218;-69
2023/01/31 00:31:31;;;;;;;4.40;1.67;;;25.40;99.90;;;;;;5014480;28;20193;-69
2023/01/31 00:33:59;;;;;;;5.53;1.50;;;25.20;99.90;;;;;;5014559;28;20560;-69
2023/01/31 00:36:30;;;;;;;6.77;2.10;;;25.00;99.90;;;;;;5013885;28;20205;-69
2023/01/31 00:39:00;;;;;;;3.53;1.37;;;24.90;99.90;;;;;;5014046;28;20174;-70
2023/01/31 00:41:29;;;;;;;3.07;1.27;;;24.90;99.90;;;;;;5014036;28;20762;-68
2023/01/31 00:43:57;;;;;;;3.73;1.63;;;24.90;99.90;;;;;;5014127;28;20665;-68
2023/01/31 00:46:25;;;;;;;5.10;1.70;;;25.00;99.90;;;;;;5013959;28;20319;-69
2023/01/31 00:48:54;;;;;;;6.20;1.30;;;25.00;99.90;;;;;;5014129;28;20193;-69
2023/01/31 00:51:23;;;;;;;6.03;1.30;;;25.10;99.90;;;;;;5013646;28;20182;-68
2023/01/31 00:53:50;;;;;;;3.20;1.30;;;25.20;99.90;;;;;;5013958;28;20184;-68
2023/01/31 00:56:22;;;;;;;3.10;1.30;;;25.20;99.90;;;;;;5014062;28;20186;-68
2023/01/31 00:58:50;;;;;;;2.53;1.40;;;25.40;99.90;;;;;;4996234;28;20194;-69
2023/01/31 01:01:22;;;;;;;4.70;1.50;;;25.40;99.90;;;;;;5013635;28;20226;-68
2023/01/31 01:04:22;;;;;;;4.77;1.40;;;25.30;99.90;;;;;;5013505;28;20180;-69
2023/01/31 01:06:50;;;;;;;3.43;1.47;;;25.30;99.90;;;;;;5013930;28;20218;-69
2023/01/31 01:09:17;;;;;;;2.03;1.13;;;25.30;99.90;;;;;;4996259;28;20202;-69
2023/01/31 01:11:45;;;;;;;3.73;1.50;;;25.30;99.90;;;;;;5013307;28;20189;-69
2023/01/31 01:14:12;;;;;;;6.17;2.00;;;25.20;99.90;;;;;;5013517;28;20193;-69
2023/01/31 01:16:41;;;;;;;4.93;1.53;;;25.20;99.90;;;;;;5013716;28;20277;-70
2023/01/31 01:19:18;;;;;;;3.20;1.33;;;25.50;99.90;;;;;;5013483;28;20655;-69
2023/01/31 01:21:46;;;;;;;7.00;1.80;;;25.80;99.90;;;;;;5013712;28;20174;-69
2023/01/31 01:24:17;;;;;;;5.73;1.50;;;26.20;99.90;;;;;;5013006;28;20178;-69
2023/01/31 01:26:45;;;;;;;3.60;1.30;;;26.30;99.90;;;;;;5013080;28;20686;-69
2023/01/31 01:29:13;;;;;;;4.83;1.83;;;26.60;99.90;;;;;;4895735;28;3407785;-69
2023/01/31 01:31:41;;;;;;;2.53;1.33;;;26.70;99.90;;;;;;5014569;28;20228;-69
2023/01/31 01:34:16;;;;;;;4.97;1.30;;;;;;;;;;5014190;28;20201;-69
2023/01/31 01:36:44;;;;;;;4.40;1.30;;;26.90;99.90;;;;;;5014414;28;20177;-69
2023/01/31 01:39:12;;;;;;;2.77;1.33;;;;;;;;;;5014168;28;20185;-69
2023/01/31 01:41:40;;;;;;;5.03;1.60;;;;;;;;;;5013782;28;20197;-70
2023/01/31 01:44:39;;;;;;;4.13;1.20;;;;;;;;;;5014248;28;20185;-69
2023/01/31 01:47:14;;;;;;;3.80;1.37;;;;;;;;;;4971243;28;20245;-69
2023/01/31 01:49:42;;;;;;;4.07;1.20;;;26.90;99.90;;;;;;5013504;28;20173;-70
2023/01/31 01:52:11;;;;;;;4.37;1.07;;;26.80;99.90;;;;;;5014306;28;20178;-69
2023/01/31 01:54:48;;;;;;;3.97;1.40;;;26.60;99.90;;;;;;5014261;28;20174;-72
2023/01/31 01:57:20;;;;;;;2.37;1.30;;;26.60;99.90;;;;;;5013511;28;20177;-71
2023/01/31 02:00:05;;;;;;;3.00;1.17;;;26.30;99.90;;;;;;5014269;28;20631;-70
2023/01/31 02:02:32;;;;;;;2.30;1.10;;;26.10;99.90;;;;;;5013782;28;20181;-70
2023/01/31 02:05:00;;;;;;;1.73;1.30;;;26.10;99.90;;;;;;5013180;28;20192;-70
2023/01/31 02:07:27;;;;;;;5.10;1.57;;;26.10;99.90;;;;;;5013467;28;20204;-72
2023/01/31 02:09:54;;;;;;;4.57;1.23;;;26.10;99.90;;;;;;5013475;28;20178;-72
2023/01/31 02:12:23;;;;;;;4.83;1.77;;;26.10;99.90;;;;;;5013507;28;20185;-73
2023/01/31 02:14:51;;;;;;;5.40;1.13;;;;;;;;;;5013930;28;20260;-71
2023/01/31 02:17:19;;;;;;;2.97;1.23;;;;;;;;;;5013400;28;20185;-71
2023/01/31 02:19:58;;;;;;;2.20;1.13;;;26.40;99.90;;;;;;4995970;28;20252;-73
2023/01/31 02:22:28;;;;;;;3.77;1.17;;;26.50;99.90;;;;;;5013662;28;20232;-73
2023/01/31 02:25:10;;;;;;;3.83;1.23;;;26.60;99.90;;;;;;5013665;28;20213;-73
2023/01/31 02:27:50;;;;;;;4.13;1.00;;;26.70;99.90;;;;;;4995835;28;20226;-71
2023/01/31 02:30:39;;;;;;;3.73;1.10;;;27.20;99.90;;;;;;5013579;28;20189;-72
2023/01/31 02:33:35;;;;;;;4.87;1.10;;;27.90;99.90;;;;;;5013344;28;20550;-72
2023/01/31 02:36:15;;;;;;;3.70;1.30;;;28.90;99.90;;;;;;4984958;28;20239;-73
2023/01/31 02:39:02;;;;;;;3.83;1.07;;;29.10;99.90;;;;;;5012755;28;20276;-71
2023/01/31 02:42:01;;;;;;;1.60;1.07;;;29.90;99.90;;;;;;5006241;28;20178;-71
2023/01/31 02:45:01;;;;;;;4.43;1.00;;;30.80;99.90;;;;;;5012193;28;20647;-72
2023/01/31 02:47:43;;;;;;;1.30;0.90;;;31.30;99.90;;;;;;5007615;28;20559;-70
2023/01/31 02:50:19;;;;;;;3.15;0.88;;;30.50;99.90;;;;;;4993516;28;20233;-73
2023/01/31 02:53:12;;;;;;;3.40;0.97;;;29.70;99.90;;;;;;4999470;28;20178;-80
2023/01/31 02:56:19;;;;;;;6.67;0.93;;;29.10;99.90;;;;;;4994857;28;20276;-76
2023/01/31 02:58:56;;;;;;;4.83;1.10;;;28.60;99.90;;;;;;4995417;28;20273;-77
2023/01/31 03:01:28;;;;;;;2.13;0.90;;;28.90;99.90;;;;;;5013241;28;20178;-77
2023/01/31 03:04:00;;;;;;;3.73;0.70;;;29.60;99.90;;;;;;4994915;28;20635;-75
2023/01/31 03:06:27;;;;;;;1.57;0.90;;;29.60;99.90;;;;;;4993972;28;20294;-77
2023/01/31 03:09:20;;;;;;;2.23;0.90;;;29.50;99.90;;;;;;4993252;28;20245;-76
2023/01/31 03:11:57;;;;;;;2.03;1.10;;;29.90;99.90;;;;;;4993041;28;20175;-75
2023/01/31 03:14:33;;;;;;;2.27;0.97;;;29.80;99.90;;;;;;4993359;28;20181;-76
2023/01/31 03:17:32;;;;;;;1.53;0.60;;;29.50;99.90;;;;;;5003058;28;20209;-76
2023/01/31 03:20:20;;;;;;;2.10;0.83;;;29.70;99.90;;;;;;4994845;28;20273;-77
2023/01/31 03:23:07;;;;;;;1.60;0.90;;;29.70;99.90;;;;;;4998538;28;20182;-78
2023/01/31 03:25:37;;;;;;;1.10;0.70;;;29.70;99.90;;;;;;5004077;28;20205;-76
2023/01/31 03:28:09;;;;;;;1.00;0.73;;;29.80;99.90;;;;;;4994662;28;20313;-77
2023/01/31 03:30:53;;;;;;;2.57;1.00;;;30.20;99.90;;;;;;5011799;28;20701;-77
2023/01/31 03:33:31;;;;;;;1.33;0.70;;;30.20;99.90;;;;;;5012102;28;20232;-78
2023/01/31 03:36:18;;;;;;;1.77;0.73;;;30.30;99.90;;;;;;5012059;28;20256;-76
2023/01/31 03:39:02;;;;;;;1.67;0.80;;;30.40;99.90;;;;;;4991688;28;20240;-77
2023/01/31 03:41:54;;;;;;;1.23;0.70;;;30.50;99.90;;;;;;5011458;28;20652;-75
2023/01/31 03:44:27;;;;;;;1.57;0.87;;;29.90;99.90;;;;;;5006492;28;20243;-78
2023/01/31 03:47:01;;;;;;;2.77;0.90;;;29.70;99.90;;;;;;5011296;28;20221;-77
2023/01/31 03:49:30;;;;;;;3.53;1.10;;;30.10;99.90;;;;;;4997416;28;20547;-80
2023/01/31 03:52:08;;;;;;;1.23;0.80;;;30.30;99.90;;;;;;5011763;28;20686;-76
2023/01/31 03:54:45;;;;;;;2.27;0.80;;;29.80;99.90;;;;;;5009921;28;20186;-75
2023/01/31 03:57:23;;;;;;;2.37;0.70;;;30.10;99.90;;;;;;5012215;28;20200;-75
2023/01/31 03:59:54;;;;;;;1.30;0.90;;;30.00;99.90;;;;;;5012765;28;20185;-75
2023/01/31 04:02:29;;;;;;;5.13;0.90;;;29.80;99.90;;;;;;5012465;28;20186;-76
2023/01/31 04:05:19;;;;;;;1.20;0.57;;;29.70;99.90;;;;;;5012040;28;20269;-74
2023/01/31 04:07:46;;;;;;;4.67;0.90;;;29.90;99.90;;;;;;5010870;28;20565;-74
2023/01/31 04:10:17;;;;;;;2.97;0.70;;;30.00;99.90;;;;;;5012832;28;20189;-70
2023/01/31 04:12:45;;;;;;;1.53;0.83;;;30.10;99.90;;;;;;5012999;28;20178;-71
2023/01/31 04:15:13;;;;;;;1.47;0.87;;;29.80;99.90;;;;;;5012835;28;20619;-70
2023/01/31 04:17:41;;;;;;;2.03;0.97;;;30.00;99.90;;;;;;5012896;28;20182;-70
2023/01/31 04:20:09;;;;;;;3.83;1.07;;;30.00;99.90;;;;;;5012964;28;20178;-70
2023/01/31 04:22:37;;;;;;;1.13;0.90;;;30.10;99.90;;;;;;5012800;28;20632;-70
2023/01/31 04:25:05;;;;;;;2.20;0.70;;;30.40;99.90;;;;;;5012897;28;20187;-69
2023/01/31 04:27:32;;;;;;;1.70;0.80;;;30.30;99.90;;;;;;5013114;28;20229;-69
2023/01/31 04:30:00;;;;;;;3.43;0.93;;;30.80;99.90;;;;;;5012848;28;20305;-69
2023/01/31 04:32:28;;;;;;;1.52;0.68;;;30.80;99.90;;;;;;5012970;28;20658;-70
2023/01/31 04:34:55;;;;;;;2.43;0.60;;;30.90;99.90;;;;;;5012968;28;20197;-69
2023/01/31 04:37:23;;;;;;;4.53;0.90;;;30.70;99.90;;;;;;5012860;28;20177;-70
2023/01/31 04:39:50;;;;;;;1.73;0.60;;;30.40;99.90;;;;;;5012984;28;20661;-71
2023/01/31 04:42:17;;;;;;;2.30;0.50;;;30.20;99.90;;;;;;5013169;28;20197;-70
2023/01/31 04:44:45;;;;;;;0.97;0.50;;;29.90;99.90;;;;;;5012668;28;20643;-70
2023/01/31 04:47:12;;;;;;;0.80;0.40;;;29.80;99.90;;;;;;5012756;28;20687;-71
2023/01/31 04:49:40;;;;;;;0.93;0.70;;;29.70;99.90;;;;;;5012964;28;20174;-70
2023/01/31 04:52:08;;;;;;;2.10;0.50;;;29.80;99.90;;;;;;5012824;28;20174;-70
2023/01/31 04:54:36;;;;;;;2.07;0.60;;;30.30;99.90;;;;;;5013453;28;20177;-69
2023/01/31 04:57:03;;;;;;;1.50;0.87;;;30.20;99.90;;;;;;5012813;28;20593;-69
2023/01/31 04:59:31;;;;;;;1.40;0.70;;;30.10;99.90;;;;;;5014106;28;20208;-69
2023/01/31 05:01:58;;;;;;;1.47;0.60;;;29.90;99.90;;;;;;5016617;28;20177;-69
2023/01/31 05:04:26;;;;;;;2.27;0.60;;;29.70;99.90;;;;;;5016332;28;20233;-70
2023/01/31 05:06:53;;;;;;;0.87;0.50;;;29.70;99.90;;;;;;5016823;28;20252;-70
2023/01/31 05:09:21;;;;;;;1.23;0.47;;;29.70;99.90;;;;;;5016359;28;20606;-70
2023/01/31 05:11:49;;;;;;;1.33;0.70;;;29.60;99.90;;;;;;4998397;28;20193;-69
2023/01/31 05:14:17;;;;;;;1.63;0.50;;;29.50;99.90;;;;;;5016147;28;20182;-70
2023/01/31 05:16:46;;;;;;;3.27;0.50;;;29.50;99.90;;;;;;4998516;28;20182;-70
2023/01/31 05:19:14;;;;;;;0.70;0.50;;;29.40;99.90;;;;;;5016086;28;20178;-69
2023/01/31 05:21:57;;;;;;;0.97;0.40;;;29.50;99.90;;;;;;5015797;28;20186;-67
2023/01/31 05:24:26;;;;;;;1.63;0.60;;;29.50;99.90;;;;;;4997982;28;20190;-69
2023/01/31 05:26:58;;;;;;;0.73;0.47;;;29.50;99.90;;;;;;5016296;28;20650;-69
2023/01/31 05:29:29;;;;;;;1.80;0.63;;;29.50;99.90;;;;;;5015496;28;20237;-68
2023/01/31 05:31:59;;;;;;;1.80;0.77;;;29.30;99.90;;;;;;5015856;28;20265;-68
2023/01/31 05:34:32;;;;;;;3.10;0.70;;;29.30;99.90;;;;;;5015585;28;20174;-68
2023/01/31 05:37:00;;;;;;;1.83;1.20;;;29.30;99.90;;;;;;5015792;28;20186;-68
2023/01/31 05:39:28;;;;;;;3.83;0.80;;;29.30;99.90;;;;;;5015742;28;20177;-69
2023/01/31 05:41:55;;;;;;;1.27;0.80;;;29.30;99.90;;;;;;5015661;28;20639;-69
2023/01/31 05:44:23;;;;;;;3.20;0.80;;;29.40;99.90;;;;;;5015416;28;20177;-68
2023/01/31 05:46:50;;;;;;;3.63;1.17;;;29.40;99.90;;;;;;5015465;28;20309;-68
2023/01/31 05:49:18;;;;;;;3.77;0.70;;;29.20;99.90;;;;;;5015163;28;20170;-68
2023/01/31 05:51:45;;;;;;;2.13;0.87;;;29.30;99.90;;;;;;5015311;28;20184;-68
2023/01/31 05:54:13;;;;;;;2.13;1.00;;;29.40;99.90;;;;;;4997538;28;20665;-68
2023/01/31 05:56:40;;;;;;;4.43;1.00;;;29.30;99.90;;;;;;5015195;28;20264;-68
2023/01/31 05:59:08;;;;;;;3.53;1.60;;;29.20;99.90;;;;;;5015242;28;20228;-68
2023/01/31 06:01:35;;;;;;;7.97;1.60;;;29.00;99.90;;;;;;5015170;28;20174;-69
2023/01/31 06:04:02;;;;;;;4.07;1.63;;;28.70;99.90;;;;;;5015188;28;20535;-69
2023/01/31 06:06:30;;;;;;;3.43;1.63;;;28.50;99.90;;;;;;5014841;28;20220;-68
2023/01/31 06:08:57;;;;;;;6.63;2.10;;;28.30;99.90;;;;;;5014935;28;20182;-69
2023/01/31 06:11:25;;;;;;;3.60;1.40;;;28.20;99.90;;;;;;5014107;28;20181;-68
2023/01/31 06:13:56;;;;;;;3.50;1.63;;;28.30;99.90;;;;;;5014816;28;20185;-68
2023/01/31 06:16:24;;;;;;;3.77;1.43;;;28.80;99.90;;;;;;4997156;28;20189;-68
2023/01/31 06:18:51;;;;;;;3.60;1.40;;;29.20;99.90;;;;;;5014999;28;20205;-68
2023/01/31 06:21:19;;;;;;;5.97;1.70;;;29.50;99.90;;;;;;5014470;28;20182;-69
2023/01/31 06:23:46;;;;;;;4.40;1.20;;;29.60;99.90;;;;;;5014585;28;20209;-68
2023/01/31 06:26:14;;;;;;;6.63;1.63;;;29.70;99.90;;;;;;5014553;28;20267;-68
2023/01/31 06:28:41;;;;;;;5.00;0.90;;;29.80;99.90;;;;;;5014419;28;20229;-69
2023/01/31 06:31:10;;;;;;;3.73;1.33;;;30.00;99.90;;;;;;5014398;28;20216;-69
2023/01/31 06:33:37;;;;;;;10.37;1.90;;;29.80;99.90;;;;;;5014536;28;20582;-69
2023/01/31 06:36:05;;;;;;;5.97;1.40;;;29.90;99.90;;;;;;5014521;28;20174;-69
2023/01/31 06:38:32;;;;;;;5.80;1.43;;;29.90;99.90;;;;;;5013575;28;20194;-73
2023/01/31 06:41:00;;;;;;;4.00;1.30;;;;;;;;;;5012995;28;20593;-73
2023/01/31 06:43:28;;;;;;;4.40;1.30;;;;;;;;;;5013353;28;20225;-76
2023/01/31 06:45:55;;;;;;;3.93;1.40;;;;;;;;;;4993502;28;20371;-74
2023/01/31 06:48:22;;;;;;;4.07;1.17;;;;;;;;;;5002360;28;20652;-74
2023/01/31 06:50:49;;;;;;;4.43;1.57;;;;;;;;;;5012720;28;20204;-74
2023/01/31 06:53:16;;;;;;;3.77;1.63;;;;;;;;;;5012483;28;20673;-74
2023/01/31 06:55:44;;;;;;;3.50;1.23;;;29.70;99.90;;;;;;5009011;28;20202;-72
2023/01/31 06:58:11;;;;;;;4.17;1.47;;;29.90;99.90;;;;;;4995170;28;20189;-73
2023/01/31 07:00:39;;;;;;;3.47;1.10;;;29.90;99.90;;;;;;5012874;28;20220;-73
2023/01/31 07:03:06;;;;;;;7.57;1.60;;;30.00;99.90;;;;;;5012493;28;20178;-73
2023/01/31 07:05:33;;;;;;;3.30;1.17;;;30.00;99.90;;;;;;5012494;28;20643;-73
2023/01/31 07:08:01;;;;;;;8.17;1.50;;;29.80;99.90;;;;;;4994670;28;20196;-73
2023/01/31 07:10:28;;;;;;;5.60;1.43;;;29.70;99.90;;;;;;5011938;28;20212;-73
2023/01/31 07:12:56;;;;;;;4.37;1.40;;;29.50;99.90;;;;;;5012351;28;20187;-72
2023/01/31 07:15:23;;;;;;;9.30;1.60;;;29.30;99.90;;;;;;5012614;28;20186;-72
2023/01/31 07:17:50;;;;;;;7.83;1.70;;;29.30;99.90;;;;;;4994422;28;20193;-72
2023/01/31 07:20:18;;;;;;;6.10;2.07;;;29.30;99.90;;;;;;5012745;28;20517;-73
2023/01/31 07:22:53;;;;;;;4.87;1.87;;;29.40;99.90;;;;;;5011892;28;20186;-73
2023/01/31 07:25:20;;;;;;;9.53;2.40;;;29.30;99.90;;;;;;5011169;28;20189;-72
2023/01/31 07:27:47;;;;;;;5.93;1.93;;;29.10;99.90;;;;;;4994754;28;20186;-72
2023/01/31 07:30:15;;;;;;;6.43;2.07;;;28.80;99.90;;;;;;5012131;28;20280;-73
2023/01/31 07:32:42;;;;;;;4.27;2.00;;;28.60;99.90;;;;;;5011903;28;20260;-73
2023/01/31 07:35:10;;;;;;;7.10;1.80;;;28.60;99.90;;;;;;5012173;28;20182;-73
2023/01/31 07:37:39;;;;;;;10.63;1.80;;;28.50;99.90;;;;;;5011899;28;20181;-72
2023/01/31 07:40:07;;;;;;;6.50;1.77;;;28.60;99.90;;;;;;5011754;28;20208;-73
2023/01/31 07:42:35;;;;;;;6.27;1.50;;;28.30;99.90;;;;;;5012197;28;20220;-74
2023/01/31 07:45:02;;;;;;;11.10;2.33;;;28.20;99.90;;;;;;5011748;28;20189;-73
2023/01/31 07:47:30;;;;;;;7.20;1.93;;;28.10;99.90;;;;;;5011535;28;20217;-73
2023/01/31 07:49:57;;;;;;;7.10;1.93;;;28.00;99.90;;;;;;5012353;28;20166;-75
2023/01/31 07:52:25;;;;;;;7.20;1.70;;;;;;;;;;5012074;28;20178;-74
2023/01/31 07:54:53;;;;;;;8.37;2.17;;;;;;;;;;5011714;28;20185;-75
2023/01/31 07:57:20;;;;;;;7.03;1.60;;;27.70;99.90;;;;;;5011791;28;20244;-74
2023/01/31 07:59:53;;;;;;;9.37;1.73;;;27.80;99.90;;;;;;5004610;28;20186;-74
2023/01/31 08:05:11;;;;;;;3.50;1.00;;;27.70;99.90;;;;;;5012292;28;20201;-74
2023/01/31 08:07:38;;;;;;;3.27;1.23;;;;;;;;;;5011846;28;20217;-76
2023/01/31 08:10:06;;;;;;;5.03;1.43;;;;;;;;;;5011682;28;20196;-75
2023/01/31 08:12:36;;;;;;;3.90;1.40;;;27.50;99.90;;;;;;4993201;28;20190;-75
2023/01/31 08:15:04;;;;;;;2.60;0.97;;;27.50;99.90;;;;;;5007173;28;20196;-75
2023/01/31 08:17:32;;;;;;;6.63;1.10;;;27.50;99.90;;;;;;5009920;28;20218;-74
2023/01/31 08:19:59;;;;;;;9.43;1.93;;;27.40;99.90;;;;;;5011671;28;20603;-74
2023/01/31 08:22:27;;;;;;;5.53;1.57;;;27.40;99.90;;;;;;5011484;28;20180;-74
2023/01/31 08:24:54;;;;;;;6.17;1.60;;;27.20;99.90;;;;;;5010300;28;20276;-74
2023/01/31 08:27:21;;;;;;;6.37;1.63;;;27.10;99.90;;;;;;5010719;28;20221;-74
2023/01/31 08:29:49;;;;;;;8.67;1.87;;;;;;;;;;5009560;28;20226;-75
2023/01/31 08:32:19;;;;;;;6.33;1.77;;;;;;;;;;5007829;28;20670;-73
2023/01/31 08:34:46;;;;;;;11.67;1.97;;;;;;;;;;5009094;28;20186;-73
2023/01/31 08:37:13;;;;;;;12.37;1.70;;;;;;;;;;5015385;28;20190;-73
2023/01/31 08:39:43;;;;;;;7.33;1.53;;;;;;;;;;5014702;28;20268;-74
2023/01/31 08:42:11;;;;;;;7.30;1.93;;;;;;;;;;4997463;28;20201;-74
2023/01/31 08:44:42;;;;;;;11.77;1.90;;;;;;;;;;4996756;28;20244;-75
2023/01/31 08:47:09;;;;;;;7.50;1.77;;;;;;;;;;5014335;28;20217;-75
2023/01/31 08:49:38;;;;;;;9.17;2.23;;;;;;;;;;5014714;28;20186;-74
2023/01/31 08:52:05;;;;;;;8.27;1.97;;;;;;;;;;5014269;28;20188;-76
2023/01/31 08:54:32;;;;;;;4.07;1.43;;;;;;;;;;5014117;28;20186;-74
2023/01/31 08:56:59;;;;;;;8.43;1.83;;;;;;;;;;5014689;28;20166;-74
2023/01/31 08:59:27;;;;;;;8.33;1.77;;;;;;;;;;5014798;28;20230;-74
2023/01/31 09:01:55;;;;;;;9.77;2.20;;;;;;;;;;4996759;28;20182;-73
2023/01/31 09:04:22;;;;;;;12.17;2.23;;;;;;;;;;5013881;28;20557;-74
2023/01/31 09:06:49;;;;;;;10.47;2.40;;;;;;;;;;5014710;28;20214;-74
2023/01/31 09:09:16;;;;;;;10.23;2.60;;;;;;;;;;5013901;28;20548;-74
2023/01/31 09:11:43;;;;;;;11.30;2.97;;;;;;;;;;5014384;28;20188;-74
2023/01/31 09:14:11;;;;;;;7.00;1.93;;;;;;;;;;5014118;28;20196;-75
2023/01/31 09:16:38;;;;;;;17.80;2.30;;;;;;;;;;5014145;28;20178;-75
2023/01/31 09:19:05;;;;;;;5.67;2.10;;;;;;;;;;5014627;28;20588;-75
2023/01/31 09:21:32;;;;;;;16.20;2.50;;;;;;;;;;5014016;28;20288;-75
2023/01/31 09:24:04;;;;;;;6.77;2.03;;;;;;;;;;5012976;28;20292;-73
2023/01/31 09:26:32;;;;;;;10.03;2.50;;;;;;;;;;5014673;28;20225;-75
2023/01/31 09:29:00;;;;;;;13.47;2.70;;;;;;;;;;5014230;28;20261;-74
2023/01/31 09:31:27;;;;;;;14.70;2.60;;;;;;;;;;5013978;28;20272;-74
2023/01/31 09:33:54;;;;;;;6.83;1.90;;;;;;;;;;5013934;28;20601;-75
2023/01/31 09:36:25;;;;;;;9.53;2.17;;;;;;;;;;5013506;28;20280;-74
2023/01/31 09:38:56;;;;;;;9.50;2.37;;;;;;;;;;5013624;28;20246;-74
2023/01/31 09:41:25;;;;;;;16.37;2.83;;;;;;;;;;5013934;28;20196;-75
2023/01/31 09:43:55;;;;;;;8.10;2.07;;;;;;;;;;5013650;28;20264;-74
2023/01/31 09:46:26;;;;;;;9.87;1.90;;;;;;;;;;5013277;28;20244;-75
2023/01/31 09:48:54;;;;;;;8.33;2.10;;;;;;;;;;4996317;28;20597;-74
2023/01/31 09:51:23;;;;;;;8.83;1.90;;;;;;;;;;4996370;28;20234;-73
2023/01/31 09:53:50;;;;;;;11.17;1.70;;;;;;;;;;5013672;28;20239;-74
2023/01/31 09:56:25;;;;;;;9.23;1.90;;;;;;;;;;4995811;28;20329;-76
2023/01/31 09:58:53;;;;;;;12.97;1.77;;;;;;;;;;5013854;28;20259;-75
2023/01/31 10:01:29;;;;;;;5.87;1.60;;;;;;;;;;5013252;28;20185;-74
2023/01/31 10:04:09;;;;;;;7.63;2.03;;;;;;;;;;5013311;28;20649;-74
2023/01/31 10:06:55;;;;;;;6.90;1.63;;;;;;;;;;4978674;28;20221;-76
2023/01/31 10:09:37;;;;;;;8.70;1.60;;;;;;;;;;5013805;28;20247;-74
2023/01/31 10:12:10;;;;;;;10.57;1.90;;;;;;;;;;5013251;28;20185;-74
2023/01/31 10:14:42;;;;;;;6.30;1.97;;;;;;;;;;5013399;28;20185;-74
2023/01/31 10:17:09;;;;;;;7.57;1.77;;;;;;;;;;5013320;28;20198;-73
2023/01/31 10:19:55;;;;;;;8.20;1.60;;;;;;;;;;5013197;28;20235;-76
2023/01/31 10:22:44;;;;;;;5.90;1.63;;;;;;;;;;5013135;28;20181;-75
2023/01/31 10:25:22;;;;;;;4.50;1.53;;;;;;;;;;5013339;28;20175;-74
2023/01/31 10:27:56;;;;;;;5.77;1.40;;;;;;;;;;4995157;28;20224;-74
2023/01/31 10:30:29;;;;;;;4.90;1.30;;;;;;;;;;5012881;28;20719;-74
2023/01/31 10:33:00;;;;;;;6.33;1.30;;;;;;;;;;5013348;28;20188;-74
2023/01/31 10:35:40;;;;;;;7.23;1.40;;;;;;;;;;5012906;28;20178;-74
2023/01/31 10:38:23;;;;;;;5.83;1.40;;;22.80;99.90;;;;;;5012411;28;20180;-74
2023/01/31 10:40:58;;;;;;;3.93;1.20;;;23.00;99.90;;;;;;5013117;28;20174;-74
2023/01/31 10:43:29;;;;;;;4.80;1.63;;;;;;;;;;5012435;28;20185;-74
2023/01/31 10:46:02;;;;;;;7.90;1.10;;;;;;;;;;5012043;28;20249;-75
2023/01/31 10:48:29;;;;;;;5.37;1.33;;;;;;;;;;4995017;28;20738;-74
2023/01/31 10:50:57;;;;;;;3.17;1.00;;;;;;;;;;5012676;28;20209;-72
2023/01/31 10:53:54;;;;;;;4.37;1.00;;;22.70;99.90;;;;;;5012410;28;20716;-73
2023/01/31 10:56:36;;;;;;;8.27;1.30;;;22.80;99.90;;;;;;5012559;28;20191;-74
2023/01/31 10:59:21;;;;;;;4.77;1.10;;;22.70;99.90;;;;;;5012061;28;20181;-74
2023/01/31 11:01:49;;;;;;;3.27;1.00;;;;;;;;;;5012465;28;20701;-74
2023/01/31 11:04:26;;;;;;;3.73;0.90;;;;;;;;;;5012477;28;20190;-74
2023/01/31 11:06:54;;;;;;;1.83;1.10;;;;;;;;;;5011987;28;20698;-74
2023/01/31 11:09:22;;;;;;;10.73;1.80;;;;;;;;;;5012261;28;20598;-73
2023/01/31 11:11:56;;;;;;;5.17;1.20;;;22.40;99.90;;;;;;4994691;28;20228;-73
2023/01/31 11:14:24;;;;;;;7.77;1.30;;;22.50;99.90;;;;;;5011746;28;20530;-73
2023/01/31 11:16:58;;;;;;;2.80;1.00;;;22.40;99.90;;;;;;5011671;28;20208;-75
2023/01/31 11:19:39;;;;;;;4.07;1.00;;;;;;;;;;5012111;28;20195;-73
2023/01/31 11:22:09;;;;;;;3.77;1.07;;;;;;;;;;5011473;28;20186;-73
2023/01/31 11:24:40;;;;;;;4.00;1.13;;;;;;;;;;5012053;28;20218;-73
2023/01/31 11:27:14;;;;;;;4.63;1.07;;;;;;;;;;5011841;28;20216;-74
2023/01/31 11:29:49;;;;;;;4.07;1.13;;;22.30;99.90;;;;;;5011594;28;20233;-72
2023/01/31 11:32:27;;;;;;;7.90;1.00;;;22.30;99.90;;;;;;4994138;28;20672;-73
2023/01/31 11:35:24;;;;;;;3.23;1.07;;;22.30;99.90;;;;;;4999950;28;20193;-74
2023/01/31 11:37:53;;;;;;;5.17;1.40;;;22.30;99.90;;;;;;4994738;28;20320;-74
2023/01/31 11:40:29;;;;;;;4.63;1.20;;;22.20;99.90;;;;;;5012290;28;20260;-72
2023/01/31 11:42:59;;;;;;;2.70;1.00;;;22.10;99.90;;;;;;5011970;28;20185;-73
2023/01/31 11:45:30;;;;;;;2.47;1.07;;;;;;;;;;5011090;28;20305;-75
2023/01/31 11:48:07;;;;;;;3.67;1.20;;;21.90;99.90;;;;;;5011426;28;20649;-74
2023/01/31 11:50:42;;;;;;;3.10;1.07;;;22.10;99.90;;;;;;5011192;28;20266;-72
2023/01/31 11:53:18;;;;;;;3.07;0.90;;;22.10;99.90;;;;;;4993900;28;20201;-73
2023/01/31 11:55:48;;;;;;;5.87;1.20;;;22.10;99.90;;;;;;5011418;28;20186;-74
2023/01/31 11:58:37;;;;;;;3.87;1.07;;;21.80;99.90;;;;;;5010562;28;20321;-74
2023/01/31 12:01:13;;;;;;;3.43;1.13;;;21.90;99.90;;;;;;5011682;28;20553;-75
2023/01/31 12:03:58;;;;;;;6.17;1.30;;;21.90;99.90;;;;;;5011810;28;20182;-73
2023/01/31 12:06:40;;;;;;;4.17;1.10;;;21.90;99.90;;;;;;4993129;28;20716;-72
2023/01/31 12:09:23;;;;;;;4.43;0.90;;;21.80;99.90;;;;;;4996053;28;20181;-73
2023/01/31 12:12:34;;;;;;;3.47;1.10;;;21.80;99.90;;;;;;5015802;28;20769;-73
2023/01/31 12:15:16;;;;;;;3.43;1.00;;;21.80;99.90;;;;;;5015207;28;20222;-73
2023/01/31 12:17:48;;;;;;;3.17;1.00;;;21.70;99.90;;;;;;5015642;28;20200;-73
2023/01/31 12:20:45;;;;;;;1.83;0.87;;;21.70;99.90;;;;;;4995624;28;20609;-72
2023/01/31 12:23:43;;;;;;;3.90;1.07;;;21.70;99.90;;;;;;5010091;28;20216;-74
2023/01/31 12:26:37;;;;;;;2.30;1.07;;;21.70;99.90;;;;;;4982142;28;20653;-73
2023/01/31 12:29:37;;;;;;;2.20;1.17;;;21.60;99.90;;;;;;5011770;28;20218;-73
2023/01/31 12:32:31;;;;;;;6.27;1.30;;;21.60;99.90;;;;;;5012669;28;20182;-72
2023/01/31 12:35:34;;;;;;;5.27;1.40;;;21.70;99.90;;;;;;5015156;28;20174;-73
2023/01/31 12:38:41;;;;;;;5.57;1.20;;;21.60;99.90;;;;;;5014871;28;20223;-73
2023/01/31 12:41:22;;;;;;;6.37;1.33;;;21.60;99.90;;;;;;5015443;28;20177;-73
2023/01/31 12:44:15;;;;;;;7.03;1.50;;;21.60;99.90;;;;;;5014964;28;20173;-73
2023/01/31 12:46:57;;;;;;;6.70;1.60;;;21.60;99.90;;;;;;5014549;28;20765;-73
2023/01/31 12:50:15;;;;;;;3.50;1.50;;;21.50;99.90;;;;;;4997370;28;20235;-73
2023/01/31 12:52:45;;;;;;;4.17;1.23;;;21.50;99.90;;;;;;4982048;28;20675;-74
2023/01/31 12:55:25;;;;;;;4.90;1.47;;;21.50;99.90;;;;;;5015191;28;20178;-73
2023/01/31 12:58:10;;;;;;;3.50;1.37;;;21.50;99.90;;;;;;5014460;28;20213;-73
2023/01/31 13:00:56;;;;;;;2.70;1.70;;;21.40;99.90;;;;;;4995421;28;20209;-72
2023/01/31 13:03:50;;;;;;;4.20;1.67;;;21.40;99.90;;;;;;4977894;28;20607;-74
2023/01/31 13:06:24;;;;;;;4.87;1.57;;;21.30;99.90;;;;;;5001062;28;20218;-74
2023/01/31 13:08:58;;;;;;;6.27;1.60;;;21.30;99.90;;;;;;5014639;28;20178;-74
2023/01/31 13:11:30;;;;;;;5.30;1.20;;;;;;;;;;5014785;28;20600;-74
2023/01/31 13:14:00;;;;;;;3.97;1.47;;;;;;;;;;5014371;28;20236;-73
2023/01/31 13:16:34;;;;;;;3.27;1.10;;;;;;;;;;5014619;28;20188;-74
2023/01/31 13:19:05;;;;;;;3.40;1.30;;;21.20;99.90;;;;;;5014514;28;20227;-74
2023/01/31 13:21:42;;;;;;;4.27;1.20;;;21.30;99.90;;;;;;5012748;28;20187;-75
2023/01/31 13:24:15;;;;;;;2.93;1.20;;;21.20;99.90;;;;;;5014391;28;20287;-74
2023/01/31 13:27:01;;;;;;;6.30;1.67;;;21.20;99.90;;;;;;5014075;28;20306;-74
2023/01/31 13:29:55;;;;;;;6.57;1.30;;;21.10;99.90;;;;;;4996111;28;20542;-73
2023/01/31 13:32:33;;;;;;;7.83;1.53;;;21.00;99.90;;;;;;5002570;28;20254;-73
2023/01/31 13:35:05;;;;;;;3.17;1.20;;;21.10;99.90;;;;;;4995665;28;20179;-75
2023/01/31 13:37:38;;;;;;;3.53;1.50;;;21.10;99.90;;;;;;5013577;28;20232;-74
2023/01/31 13:40:15;;;;;;;5.33;1.43;;;21.00;99.90;;;;;;5004959;28;20190;-74
2023/01/31 13:42:43;;;;;;;1.47;1.07;;;21.00;99.90;;;;;;5014490;28;20642;-74
2023/01/31 13:45:28;;;;;;;4.67;1.13;;;21.00;99.90;;;;;;5014816;28;20228;-74
2023/01/31 13:48:15;;;;;;;2.27;1.00;;;20.90;99.90;;;;;;4996849;28;20344;-73